createdAt,value
2017-11-09T00:01:23.791Z,91.6
2017-11-09T00:02:22.568Z,91.5
2017-11-09T00:03:22.134Z,91.5
2017-11-09T00:04:21.196Z,91.5
2017-11-09T00:05:19.973Z,91.5
2017-11-09T00:06:19.399Z,91.6
2017-11-09T00:07:18.188Z,91.7
2017-11-09T00:09:16.663Z,91.8
2017-11-09T00:10:15.318Z,91.8
2017-11-09T00:11:14.613Z,91.7
2017-11-09T00:12:13.895Z,91.6
2017-11-09T00:13:12.547Z,91.7
2017-11-09T00:14:12.106Z,91.8
2017-11-09T00:15:11.165Z,92.1
2017-11-09T00:17:09.325Z,91.8
2017-11-09T00:18:08.145Z,91.9
2017-11-09T00:19:07.418Z,92
2017-11-09T00:20:06.338Z,92
2017-11-09T00:21:05.260Z,92.1
2017-11-09T00:22:04.549Z,92.1
2017-11-09T00:23:03.471Z,91.9
2017-11-09T00:24:02.753Z,92
2017-11-09T00:24:32.874Z,92
2017-11-09T00:26:00.714Z,92.2
2017-11-09T00:26:59.494Z,92.5
2017-11-09T00:27:58.911Z,92.7
2017-11-09T00:28:57.847Z,92.9
2017-11-09T00:29:57.133Z,92.7
2017-11-09T00:30:56.060Z,92.7
2017-11-09T00:31:55.501Z,92.7
2017-11-09T00:32:54.153Z,93.2
2017-11-09T00:33:53.429Z,93
2017-11-09T00:34:52.582Z,92.9
2017-11-09T00:35:22.961Z,92.9
2017-11-09T00:35:53.301Z,93.1
2017-11-09T00:36:23.897Z,93.1
2017-11-09T00:36:54.493Z,93.1
2017-11-09T00:37:25.112Z,93.1
2017-11-09T00:38:48.587Z,93.2
2017-11-09T00:39:47.669Z,93.3
2017-11-09T00:40:46.697Z,93.4
2017-11-09T00:41:46.105Z,93.4
2017-11-09T00:43:44.290Z,93.5
2017-11-09T00:44:43.221Z,93.4
2017-11-09T00:46:41.380Z,93.6
2017-11-09T00:47:40.295Z,93.6
2017-11-09T00:48:39.576Z,93.5
2017-11-09T00:49:38.483Z,93.5
2017-11-09T00:52:35.894Z,93.5
2017-11-09T00:53:34.951Z,93.5
2017-11-09T00:54:33.754Z,93.5
2017-11-09T00:55:32.769Z,93.5
2017-11-09T00:56:32.346Z,93.5
2017-11-09T00:57:31.267Z,93.5
2017-11-09T00:59:29.479Z,93.5
2017-11-09T01:01:27.427Z,93.4
2017-11-09T01:02:26.209Z,93.5
2017-11-09T01:03:25.355Z,93.5
2017-11-09T01:04:24.503Z,93.5
2017-11-09T01:06:22.951Z,93.6
2017-11-09T01:07:21.905Z,93.5
2017-11-09T01:08:20.828Z,93.5
2017-11-09T01:09:20.252Z,93.4
2017-11-09T01:10:19.158Z,93.4
2017-11-09T01:11:18.453Z,93.4
2017-11-09T01:12:17.253Z,93.4
2017-11-09T01:13:16.032Z,93.4
2017-11-09T01:14:15.543Z,93.3
2017-11-09T01:15:14.449Z,93.3
2017-11-09T01:16:13.724Z,93.3
2017-11-09T01:18:11.396Z,93.3
2017-11-09T01:18:41.860Z,93.3
2017-11-09T01:20:09.972Z,93.3
2017-11-09T01:21:08.893Z,93.3
2017-11-09T01:22:07.686Z,93.3
2017-11-09T01:23:07.280Z,93.3
2017-11-09T01:24:05.942Z,93.2
2017-11-09T01:25:05.004Z,93.2
2017-11-09T01:26:04.432Z,93.2
2017-11-09T01:29:01.614Z,93.1
2017-11-09T01:30:00.399Z,93.1
2017-11-09T01:30:59.558Z,93.2
2017-11-09T01:31:58.843Z,93.2
2017-11-09T01:32:57.984Z,93.2
2017-11-09T01:33:56.912Z,93.1
2017-11-09T01:34:55.922Z,93.1
2017-11-09T01:35:54.849Z,93.1
2017-11-09T01:36:54.130Z,93.2
2017-11-09T01:37:53.049Z,93.4
2017-11-09T01:38:52.465Z,93.4
2017-11-09T01:40:50.401Z,93.5
2017-11-09T01:41:49.453Z,93.1
2017-11-09T01:42:48.526Z,93.1
2017-11-09T01:43:47.595Z,93
2017-11-09T01:44:46.502Z,93.2
2017-11-09T01:47:43.677Z,93.3
2017-11-09T01:49:42.019Z,93.3
2017-11-09T01:50:41.300Z,93.1
2017-11-09T01:51:40.243Z,93.1
2017-11-09T01:52:39.286Z,93.1
2017-11-09T01:53:38.426Z,93.1
2017-11-09T01:55:36.356Z,93.1
2017-11-09T01:56:35.640Z,93.1
2017-11-09T01:57:34.404Z,93
2017-11-09T01:58:33.676Z,93
2017-11-09T01:59:32.583Z,93.1
2017-11-09T02:01:30.879Z,93
2017-11-09T02:02:30.164Z,92.8
2017-11-09T02:03:28.812Z,92.6
2017-11-09T02:04:27.823Z,92.7
2017-11-09T02:05:27.384Z,92.7
2017-11-09T02:06:26.180Z,92.7
2017-11-09T02:07:25.225Z,92.7
2017-11-09T02:08:24.644Z,92.4
2017-11-09T02:09:23.286Z,92.4
2017-11-09T02:10:22.732Z,92.4
2017-11-09T02:11:21.647Z,92.5
2017-11-09T02:12:20.571Z,92.5
2017-11-09T02:13:19.615Z,92.8
2017-11-09T02:14:19.048Z,92.8
2017-11-09T02:15:17.835Z,92.7
2017-11-09T02:16:16.743Z,92.6
2017-11-09T02:17:16.030Z,92.6
2017-11-09T02:19:14.204Z,92.6
2017-11-09T02:20:13.013Z,92.7
2017-11-09T02:21:12.424Z,92.7
2017-11-09T02:22:11.466Z,92.8
2017-11-09T02:23:10.251Z,92.8
2017-11-09T02:24:09.667Z,92.8
2017-11-09T02:25:08.681Z,92.9
2017-11-09T02:26:07.746Z,92.9
2017-11-09T02:27:06.539Z,92.9
2017-11-09T02:28:05.829Z,92.8
2017-11-09T02:29:04.741Z,92.8
2017-11-09T02:30:03.918Z,92.8
2017-11-09T02:31:03.073Z,92.8
2017-11-09T02:32:02.009Z,92.7
2017-11-09T02:34:00.317Z,92.7
2017-11-09T02:34:59.226Z,92.7
2017-11-09T02:35:58.410Z,92.6
2017-11-09T02:36:57.583Z,92.7
2017-11-09T02:37:56.361Z,92.7
2017-11-09T02:38:55.663Z,92.7
2017-11-09T02:39:54.753Z,92.8
2017-11-09T02:41:52.554Z,92.7
2017-11-09T02:42:51.978Z,92.7
2017-11-09T02:43:50.900Z,92.7
2017-11-09T02:44:49.982Z,92.8
2017-11-09T02:45:48.923Z,92.8
2017-11-09T02:46:48.222Z,92.7
2017-11-09T02:47:47.301Z,92.6
2017-11-09T02:48:46.100Z,92.6
2017-11-09T02:50:44.273Z,92.8
2017-11-09T02:51:43.732Z,92.9
2017-11-09T02:53:41.408Z,93.1
2017-11-09T02:54:40.477Z,93
2017-11-09T02:55:39.643Z,92.9
2017-11-09T02:56:38.927Z,92.9
2017-11-09T02:57:37.842Z,92.8
2017-11-09T02:58:36.780Z,93
2017-11-09T02:59:36.199Z,93
2017-11-09T03:00:35.291Z,93.1
2017-11-09T03:01:34.088Z,93.2
2017-11-09T03:02:33.015Z,93.2
2017-11-09T03:03:32.444Z,93.3
2017-11-09T03:04:31.240Z,93.3
2017-11-09T03:05:30.162Z,93.3
2017-11-09T03:06:29.436Z,93.4
2017-11-09T03:07:28.453Z,93.4
2017-11-09T03:08:27.466Z,93.4
2017-11-09T03:09:26.354Z,93.4
2017-11-09T03:10:25.646Z,93.5
2017-11-09T03:11:24.573Z,93.4
2017-11-09T03:12:23.853Z,93.3
2017-11-09T03:13:22.636Z,93.3
2017-11-09T03:14:22.179Z,93.4
2017-11-09T03:15:21.093Z,93.4
2017-11-09T03:16:20.140Z,93.1
2017-11-09T03:17:19.429Z,93.3
2017-11-09T03:18:18.221Z,93.3
2017-11-09T03:19:17.364Z,93.2
2017-11-09T03:20:16.428Z,93.2
2017-11-09T03:21:15.357Z,93.2
2017-11-09T03:22:14.408Z,93.1
2017-11-09T03:23:13.712Z,93.2
2017-11-09T03:24:12.867Z,93.1
2017-11-09T03:25:11.661Z,93.2
2017-11-09T03:26:10.824Z,93.2
2017-11-09T03:27:09.984Z,93.2
2017-11-09T03:28:09.273Z,93.1
2017-11-09T03:30:07.838Z,93.1
2017-11-09T03:31:06.181Z,93
2017-11-09T03:32:05.120Z,93
2017-11-09T03:33:04.413Z,93.1
2017-11-09T03:34:03.472Z,93.1
2017-11-09T03:35:02.763Z,93.2
2017-11-09T03:36:01.279Z,93.5
2017-11-09T03:37:00.561Z,93.4
2017-11-09T03:37:59.466Z,93.3
2017-11-09T03:38:58.614Z,93.3
2017-11-09T03:39:57.916Z,93.2
2017-11-09T03:40:56.577Z,93.1
2017-11-09T03:42:54.755Z,93
2017-11-09T03:43:54.335Z,93
2017-11-09T03:45:52.280Z,93.1
2017-11-09T03:47:50.619Z,93.1
2017-11-09T03:48:49.415Z,93
2017-11-09T03:49:48.721Z,93
2017-11-09T03:51:46.550Z,93.2
2017-11-09T03:52:45.484Z,93.2
2017-11-09T03:53:44.790Z,93.2
2017-11-09T03:54:43.725Z,93.2
2017-11-09T03:55:42.793Z,93.2
2017-11-09T03:56:42.238Z,93.2
2017-11-09T03:57:41.194Z,93.2
2017-11-09T03:58:40.123Z,93.3
2017-11-09T03:59:39.067Z,93.3
2017-11-09T04:00:38.125Z,93.4
2017-11-09T04:03:35.336Z,93.2
2017-11-09T04:04:34.776Z,93.3
2017-11-09T04:05:33.584Z,93.3
2017-11-09T04:06:32.878Z,93.3
2017-11-09T04:07:31.813Z,93.4
2017-11-09T04:08:30.973Z,93.3
2017-11-09T04:09:29.932Z,93.3
2017-11-09T04:10:28.863Z,93.3
2017-11-09T04:11:27.656Z,93.3
2017-11-09T04:11:58.412Z,93.3
2017-11-09T04:13:26.166Z,93.4
2017-11-09T04:14:25.221Z,93.5
2017-11-09T04:15:24.148Z,93.5
2017-11-09T04:16:23.464Z,93.6
2017-11-09T04:17:22.135Z,93.6
2017-11-09T04:18:21.327Z,93.6
2017-11-09T04:19:20.391Z,93.8
2017-11-09T04:20:19.841Z,93.8
2017-11-09T04:21:18.624Z,93.8
2017-11-09T04:21:49.003Z,93.8
2017-11-09T04:22:19.630Z,93.9
2017-11-09T04:22:50.247Z,93.9
2017-11-09T04:24:15.730Z,94
2017-11-09T04:25:14.625Z,94
2017-11-09T04:26:13.955Z,93.9
2017-11-09T04:27:12.848Z,93.9
2017-11-09T04:29:11.176Z,93.9
2017-11-09T04:30:10.341Z,94
2017-11-09T04:31:09.281Z,93.9
2017-11-09T04:32:08.446Z,93.9
2017-11-09T04:33:07.260Z,94
2017-11-09T04:34:06.691Z,94
2017-11-09T04:35:05.493Z,94
2017-11-09T04:36:04.648Z,94.1
2017-11-09T04:37:03.676Z,94.1
2017-11-09T04:39:01.730Z,94.1
2017-11-09T04:40:00.800Z,94.1
2017-11-09T04:41:58.846Z,94
2017-11-09T04:42:57.926Z,94.2
2017-11-09T04:43:57.359Z,94.3
2017-11-09T04:44:56.293Z,94.2
2017-11-09T04:45:55.104Z,94.2
2017-11-09T04:47:53.581Z,94.2
2017-11-09T04:48:52.506Z,94.2
2017-11-09T04:49:51.561Z,94.2
2017-11-09T04:50:50.495Z,94.2
2017-11-09T04:51:49.661Z,94.2
2017-11-09T04:52:48.736Z,94.2
2017-11-09T04:53:19.135Z,94.2
2017-11-09T04:53:49.380Z,94.2
2017-11-09T04:54:19.859Z,94.2
2017-11-09T04:56:44.988Z,94.1
2017-11-09T04:57:44.286Z,94.1
2017-11-09T04:58:43.086Z,94
2017-11-09T04:59:41.899Z,94
2017-11-09T05:00:41.463Z,94.1
2017-11-09T05:01:40.531Z,94.1
2017-11-09T05:02:39.457Z,94.1
2017-11-09T05:03:38.119Z,94.1
2017-11-09T05:04:08.370Z,94.1
2017-11-09T05:04:38.637Z,94.1
2017-11-09T05:05:09.033Z,94.1
2017-11-09T05:06:35.373Z,94.2
2017-11-09T05:07:34.822Z,94.2
2017-11-09T05:08:33.618Z,94.2
2017-11-09T05:09:33.058Z,94.1
2017-11-09T05:10:31.888Z,94.2
2017-11-09T05:11:31.070Z,94.2
2017-11-09T05:12:30.009Z,94.2
2017-11-09T05:14:27.971Z,94.2
2017-11-09T05:14:58.349Z,94.2
2017-11-09T05:15:28.594Z,94.2
2017-11-09T05:15:59.006Z,94.2
2017-11-09T05:18:24.663Z,94.2
2017-11-09T05:20:22.480Z,94.3
2017-11-09T05:21:21.648Z,94.2
2017-11-09T05:22:20.714Z,94.2
2017-11-09T05:24:18.627Z,94.1
2017-11-09T05:26:17.091Z,94.1
2017-11-09T05:27:15.897Z,94.2
2017-11-09T05:28:15.102Z,94.2
2017-11-09T05:29:14.138Z,94.2
2017-11-09T05:30:12.939Z,94.1
2017-11-09T05:32:11.254Z,94.1
2017-11-09T05:34:09.310Z,94.2
2017-11-09T05:35:08.509Z,94.2
2017-11-09T05:36:07.471Z,94.2
2017-11-09T05:38:05.805Z,94.2
2017-11-09T05:39:04.730Z,94.2
2017-11-09T05:40:03.679Z,94.2
2017-11-09T05:41:02.850Z,94.3
2017-11-09T05:42:01.896Z,94.3
2017-11-09T05:43:00.987Z,94.3
2017-11-09T05:44:00.148Z,94.3
2017-11-09T05:45:58.336Z,94.2
2017-11-09T05:46:57.496Z,94.3
2017-11-09T05:47:56.428Z,94.2
2017-11-09T05:48:55.361Z,94.2
2017-11-09T05:49:54.679Z,94.2
2017-11-09T05:50:53.627Z,94.2
2017-11-09T05:51:52.551Z,94.2
2017-11-09T05:52:51.480Z,94.2
2017-11-09T05:53:50.916Z,94.2
2017-11-09T05:54:49.842Z,94.3
2017-11-09T05:55:48.794Z,94.3
2017-11-09T05:56:47.729Z,94.3
2017-11-09T05:57:46.915Z,94.3
2017-11-09T05:59:45.268Z,94.3
2017-11-09T06:01:42.953Z,94.3
2017-11-09T06:02:42.420Z,94.3
2017-11-09T06:03:41.352Z,94.3
2017-11-09T06:04:40.509Z,94.4
2017-11-09T06:05:39.319Z,94.4
2017-11-09T06:06:38.760Z,94.4
2017-11-09T06:08:36.717Z,94.5
2017-11-09T06:10:34.914Z,94.4
2017-11-09T06:11:33.947Z,94.4
2017-11-09T06:13:31.858Z,94.4
2017-11-09T06:14:30.889Z,94.3
2017-11-09T06:15:29.944Z,94.3
2017-11-09T06:16:29.105Z,94.3
2017-11-09T06:17:28.554Z,94.4
2017-11-09T06:18:27.239Z,94.3
2017-11-09T06:19:26.540Z,94.3
2017-11-09T06:20:25.483Z,94.4
2017-11-09T06:22:23.798Z,94.5
2017-11-09T06:23:22.593Z,94.5
2017-11-09T06:24:21.900Z,94.5
2017-11-09T06:25:20.971Z,94.5
2017-11-09T06:26:20.044Z,94.6
2017-11-09T06:27:18.860Z,94.6
2017-11-09T06:29:17.315Z,94.5
2017-11-09T06:30:16.236Z,94.5
2017-11-09T06:31:15.182Z,94.5
2017-11-09T06:33:13.091Z,94.3
2017-11-09T06:34:12.164Z,94.3
2017-11-09T06:35:11.356Z,94.3
2017-11-09T06:36:10.666Z,94.3
2017-11-09T06:37:09.829Z,94.3
2017-11-09T06:38:08.894Z,94.3
2017-11-09T06:39:07.824Z,94.3
2017-11-09T06:40:06.878Z,94.3
2017-11-09T06:40:37.145Z,94.3
2017-11-09T06:42:04.765Z,94.4
2017-11-09T06:43:04.062Z,94.4
2017-11-09T06:44:02.879Z,94.4
2017-11-09T06:45:01.957Z,94.5
2017-11-09T06:46:01.119Z,94.4
2017-11-09T06:47:00.056Z,94.4
2017-11-09T06:47:59.229Z,94.3
2017-11-09T06:48:58.151Z,94.5
2017-11-09T06:49:57.599Z,94.5
2017-11-09T06:50:56.538Z,94.5
2017-11-09T06:51:55.469Z,94.5
2017-11-09T06:52:54.273Z,94.6
2017-11-09T06:53:53.580Z,94.7
2017-11-09T06:54:52.509Z,94.8
2017-11-09T06:55:51.948Z,94.8
2017-11-09T06:56:50.894Z,94.8
2017-11-09T06:57:49.691Z,94.9
2017-11-09T06:58:48.639Z,95
2017-11-09T06:59:47.876Z,94.9
2017-11-09T07:00:47.169Z,95
2017-11-09T07:01:45.958Z,95
2017-11-09T07:02:45.391Z,95.1
2017-11-09T07:03:44.195Z,95.1
2017-11-09T07:04:43.141Z,95.2
2017-11-09T07:05:42.064Z,95.2
2017-11-09T07:06:41.495Z,95.3
2017-11-09T07:07:40.420Z,95.2
2017-11-09T07:08:39.577Z,95.2
2017-11-09T07:09:38.881Z,95.2
2017-11-09T07:10:37.974Z,95.2
2017-11-09T07:11:36.651Z,95.2
2017-11-09T07:12:36.075Z,95.2
2017-11-09T07:13:35.105Z,95.3
2017-11-09T07:14:34.171Z,95.3
2017-11-09T07:15:32.989Z,95.3
2017-11-09T07:16:32.203Z,95.3
2017-11-09T07:17:31.008Z,95.3
2017-11-09T07:18:30.088Z,95.3
2017-11-09T07:19:29.528Z,95.3
2017-11-09T07:19:59.785Z,95.3
2017-11-09T07:20:30.134Z,95.3
2017-11-09T07:21:00.545Z,95.3
2017-11-09T07:21:30.791Z,95.4
2017-11-09T07:22:01.053Z,95.4
2017-11-09T07:22:31.439Z,95.3
2017-11-09T07:23:25.342Z,95.4
2017-11-09T07:25:23.659Z,95.4
2017-11-09T07:26:22.968Z,95.4
2017-11-09T07:27:22.042Z,95.4
2017-11-09T07:28:20.972Z,95.4
2017-11-09T07:29:19.780Z,95.4
2017-11-09T07:29:49.889Z,95.4
2017-11-09T07:30:20.652Z,95.5
2017-11-09T07:30:50.907Z,95.5
2017-11-09T07:31:21.521Z,95.4
2017-11-09T07:31:51.767Z,95.4
2017-11-09T07:32:22.004Z,95.4
2017-11-09T07:32:52.395Z,95.4
2017-11-09T07:35:14.104Z,95.4
2017-11-09T07:36:13.182Z,95.4
2017-11-09T07:37:12.624Z,95.4
2017-11-09T07:38:11.413Z,95.4
2017-11-09T07:39:10.494Z,95.5
2017-11-09T07:40:09.440Z,95.5
2017-11-09T07:41:08.888Z,95.5
2017-11-09T07:42:07.680Z,95.5
2017-11-09T07:43:07.123Z,95.6
2017-11-09T07:44:06.073Z,95.6
2017-11-09T07:45:04.874Z,95.7
2017-11-09T07:46:03.674Z,95.7
2017-11-09T07:47:02.992Z,95.7
2017-11-09T07:48:02.296Z,95.7
2017-11-09T07:49:01.468Z,95.7
2017-11-09T07:50:00.277Z,95.7
2017-11-09T07:50:59.221Z,95.7
2017-11-09T07:51:58.300Z,95.7
2017-11-09T07:52:57.602Z,95.6
2017-11-09T07:53:56.665Z,95.7
2017-11-09T07:54:55.756Z,95.7
2017-11-09T07:55:54.856Z,95.8
2017-11-09T07:56:53.569Z,95.8
2017-11-09T07:57:52.741Z,95.8
2017-11-09T07:58:51.744Z,95.8
2017-11-09T07:59:51.201Z,95.8
2017-11-09T08:00:50.124Z,95.8
2017-11-09T08:01:20.511Z,95.8
2017-11-09T08:01:50.777Z,95.9
2017-11-09T08:02:48.071Z,95.9
2017-11-09T08:03:47.132Z,95.9
2017-11-09T08:04:45.930Z,95.9
2017-11-09T08:05:44.973Z,95.9
2017-11-09T08:06:44.418Z,95.9
2017-11-09T08:07:43.345Z,95.9
2017-11-09T08:09:41.390Z,95.9
2017-11-09T08:10:40.845Z,95.9
2017-11-09T08:11:39.788Z,96
2017-11-09T08:12:10.037Z,96
2017-11-09T08:12:40.291Z,96
2017-11-09T08:13:10.546Z,96
2017-11-09T08:14:36.813Z,95.9
2017-11-09T08:15:36.251Z,95.9
2017-11-09T08:16:34.925Z,95.9
2017-11-09T08:17:34.236Z,95.8
2017-11-09T08:18:33.078Z,95.8
2017-11-09T08:19:32.151Z,95.8
2017-11-09T08:20:31.100Z,95.7
2017-11-09T08:21:30.532Z,95.7
2017-11-09T08:22:29.459Z,95.6
2017-11-09T08:23:28.396Z,95.7
2017-11-09T08:24:27.335Z,95.7
2017-11-09T08:25:26.493Z,95.7
2017-11-09T08:27:24.669Z,95.7
2017-11-09T08:28:23.853Z,95.7
2017-11-09T08:29:23.013Z,95.6
2017-11-09T08:30:21.940Z,95.5
2017-11-09T08:32:19.998Z,95.5
2017-11-09T08:33:19.093Z,95.5
2017-11-09T08:34:18.035Z,95.5
2017-11-09T08:35:17.209Z,95.5
2017-11-09T08:36:16.167Z,95.5
2017-11-09T08:37:15.245Z,95.5
2017-11-09T08:38:14.406Z,95.5
2017-11-09T08:39:13.476Z,95.5
2017-11-09T08:40:12.567Z,95.6
2017-11-09T08:42:10.759Z,95.5
2017-11-09T08:44:08.701Z,95.5
2017-11-09T08:45:08.169Z,95.4
2017-11-09T08:46:07.252Z,95.4
2017-11-09T08:47:05.845Z,95.3
2017-11-09T08:48:05.148Z,95.2
2017-11-09T08:49:04.225Z,95.2
2017-11-09T08:50:02.891Z,95.2
2017-11-09T08:51:02.568Z,95.2
2017-11-09T08:52:01.169Z,95.1
2017-11-09T08:53:59.365Z,95.1
2017-11-09T08:54:58.842Z,95.1
2017-11-09T08:56:56.387Z,95
2017-11-09T08:57:55.824Z,94.9
2017-11-09T08:58:55.122Z,94.9
2017-11-09T08:59:54.073Z,94.8
2017-11-09T09:00:53.001Z,94.8
2017-11-09T09:01:51.951Z,94.8
2017-11-09T09:02:50.882Z,94.8
2017-11-09T09:03:50.458Z,94.8
2017-11-09T09:04:48.902Z,94.8
2017-11-09T09:05:48.336Z,94.7
2017-11-09T09:07:46.380Z,94.6
2017-11-09T09:08:45.320Z,94.5
2017-11-09T09:09:44.420Z,94.5
2017-11-09T09:10:43.583Z,94.5
2017-11-09T09:11:42.752Z,94.5
2017-11-09T09:12:41.697Z,94.6
2017-11-09T09:13:40.778Z,94.6
2017-11-09T09:14:39.715Z,94.6
2017-11-09T09:15:39.141Z,94.6
2017-11-09T09:16:37.957Z,94.6
2017-11-09T09:18:36.139Z,94.6
2017-11-09T09:19:34.971Z,94.6
2017-11-09T09:20:34.282Z,94.6
2017-11-09T09:22:32.587Z,94.6
2017-11-09T09:23:31.393Z,94.6
2017-11-09T09:24:30.467Z,94.5
2017-11-09T09:25:29.915Z,94.5
2017-11-09T09:26:28.712Z,94.4
2017-11-09T09:27:27.791Z,94.5
2017-11-09T09:28:27.125Z,94.4
2017-11-09T09:29:26.200Z,94.4
2017-11-09T09:30:25.006Z,94.4
2017-11-09T09:31:23.986Z,94.4
2017-11-09T09:32:22.947Z,94.4
2017-11-09T09:33:22.392Z,94.6
2017-11-09T09:34:21.082Z,94.6
2017-11-09T09:35:20.179Z,94.6
2017-11-09T09:36:19.620Z,94.7
2017-11-09T09:37:18.303Z,94.7
2017-11-09T09:38:17.597Z,94.6
2017-11-09T09:39:16.676Z,94.7
2017-11-09T09:40:15.765Z,94.6
2017-11-09T09:41:14.699Z,94.7
2017-11-09T09:42:13.878Z,94.7
2017-11-09T09:43:12.833Z,94.7
2017-11-09T09:44:12.130Z,94.7
2017-11-09T09:45:11.060Z,94.7
2017-11-09T09:46:10.227Z,94.6
2017-11-09T09:47:09.311Z,94.7
2017-11-09T09:47:39.562Z,94.7
2017-11-09T09:48:10.341Z,94.7
2017-11-09T09:48:40.959Z,94.7
2017-11-09T09:50:06.562Z,94.6
2017-11-09T09:51:05.354Z,94.7
2017-11-09T09:52:04.420Z,94.8
2017-11-09T09:53:03.505Z,94.8
2017-11-09T09:54:02.446Z,94.8
2017-11-09T09:55:01.902Z,94.8
2017-11-09T09:56:00.985Z,94.8
2017-11-09T09:56:59.784Z,94.9
2017-11-09T09:57:58.716Z,94.9
2017-11-09T09:58:58.165Z,95
2017-11-09T09:59:57.165Z,95
2017-11-09T10:00:55.890Z,95
2017-11-09T10:02:54.224Z,95.1
2017-11-09T10:03:53.402Z,95.1
2017-11-09T10:04:52.200Z,95.1
2017-11-09T10:05:51.503Z,95.1
2017-11-09T10:06:50.439Z,95.1
2017-11-09T10:07:49.926Z,95
2017-11-09T10:08:48.362Z,95
2017-11-09T10:09:47.794Z,95
2017-11-09T10:10:46.866Z,94.9
2017-11-09T10:11:46.037Z,94.9
2017-11-09T10:12:45.108Z,94.8
2017-11-09T10:14:42.926Z,94.8
2017-11-09T10:15:42.365Z,94.7
2017-11-09T10:16:41.300Z,94.7
2017-11-09T10:17:40.235Z,94.7
2017-11-09T10:18:39.309Z,94.6
2017-11-09T10:19:38.603Z,94.6
2017-11-09T10:20:37.421Z,94.6
2017-11-09T10:21:36.875Z,94.6
2017-11-09T10:22:35.542Z,94.6
2017-11-09T10:23:34.716Z,94.6
2017-11-09T10:24:34.076Z,94.6
2017-11-09T10:25:33.018Z,94.6
2017-11-09T10:26:32.092Z,94.6
2017-11-09T10:27:31.031Z,94.6
2017-11-09T10:28:30.115Z,94.6
2017-11-09T10:29:29.058Z,94.7
2017-11-09T10:30:28.512Z,94.7
2017-11-09T10:31:27.594Z,94.7
2017-11-09T10:32:26.531Z,94.8
2017-11-09T10:33:25.471Z,94.8
2017-11-09T10:34:24.399Z,94.8
2017-11-09T10:35:23.860Z,94.8
2017-11-09T10:36:22.667Z,94.7
2017-11-09T10:37:21.973Z,94.7
2017-11-09T10:39:19.926Z,94.6
2017-11-09T10:40:19.009Z,94.7
2017-11-09T10:41:17.952Z,94.8
2017-11-09T10:42:17.382Z,94.8
2017-11-09T10:43:16.318Z,94.7
2017-11-09T10:44:15.275Z,94.7
2017-11-09T10:45:14.086Z,94.7
2017-11-09T10:46:13.382Z,94.8
2017-11-09T10:47:12.314Z,94.8
2017-11-09T10:48:11.788Z,94.9
2017-11-09T10:49:10.590Z,94.9
2017-11-09T10:50:09.905Z,94.9
2017-11-09T10:51:08.836Z,94.8
2017-11-09T10:52:07.933Z,94.8
2017-11-09T10:53:07.238Z,94.7
2017-11-09T10:54:05.903Z,94.8
2017-11-09T10:55:05.232Z,94.8
2017-11-09T10:56:03.901Z,94.7
2017-11-09T10:57:03.220Z,94.6
2017-11-09T10:58:02.553Z,94.5
2017-11-09T10:59:01.271Z,94.2
2017-11-09T11:00:00.362Z,94.2
2017-11-09T11:00:59.389Z,94.2
2017-11-09T11:01:58.712Z,94.3
2017-11-09T11:03:56.744Z,94.2
2017-11-09T11:04:55.565Z,94.2
2017-11-09T11:05:54.935Z,94.1
2017-11-09T11:06:53.868Z,94
2017-11-09T11:07:53.310Z,94
2017-11-09T11:08:52.404Z,93.9
2017-11-09T11:09:51.467Z,93.7
2017-11-09T11:10:50.418Z,93.7
2017-11-09T11:11:49.255Z,93.6
2017-11-09T11:12:48.710Z,93.5
2017-11-09T11:13:47.643Z,93.5
2017-11-09T11:14:46.438Z,93.4
2017-11-09T11:17:44.016Z,92.8
2017-11-09T11:18:42.807Z,92.7
2017-11-09T11:19:42.104Z,92.5
2017-11-09T11:20:41.753Z,92.5
2017-11-09T11:21:40.358Z,92.5
2017-11-09T11:22:39.286Z,92.2
2017-11-09T11:23:38.596Z,92.4
2017-11-09T11:24:37.261Z,92
2017-11-09T11:25:36.343Z,91.9
2017-11-09T11:26:35.414Z,92
2017-11-09T11:27:34.600Z,92.4
2017-11-09T11:28:33.557Z,92
2017-11-09T11:29:32.984Z,91.9
2017-11-09T11:30:32.056Z,92
2017-11-09T11:31:30.995Z,91.6
2017-11-09T11:32:29.818Z,91.3
2017-11-09T11:33:29.245Z,91.5
2017-11-09T11:34:27.918Z,91.8
2017-11-09T11:35:27.351Z,91.5
2017-11-09T11:36:26.415Z,91.5
2017-11-09T11:37:25.484Z,91.8
2017-11-09T11:38:24.414Z,91.8
2017-11-09T11:39:23.497Z,91.8
2017-11-09T11:40:22.941Z,91.4
2017-11-09T11:41:21.623Z,91.5
2017-11-09T11:42:21.060Z,91.2
2017-11-09T11:43:19.875Z,91.4
2017-11-09T11:44:19.316Z,91.7
2017-11-09T11:45:17.980Z,91.8
2017-11-09T11:46:16.917Z,91.3
2017-11-09T11:47:16.221Z,91.4
2017-11-09T11:48:15.667Z,91.4
2017-11-09T11:49:14.336Z,91
2017-11-09T11:50:13.411Z,90.9
2017-11-09T11:51:12.356Z,91.1
2017-11-09T11:52:11.664Z,91.1
2017-11-09T11:53:11.094Z,91.2
2017-11-09T11:54:10.026Z,91.1
2017-11-09T11:55:08.960Z,91.1
2017-11-09T11:56:08.002Z,91
2017-11-09T11:57:07.294Z,90.7
2017-11-09T11:58:06.109Z,90.7
2017-11-09T11:59:05.547Z,90.8
2017-11-09T12:00:04.616Z,90.9
2017-11-09T12:01:03.410Z,90.9
2017-11-09T12:02:02.707Z,91.1
2017-11-09T12:03:02.011Z,91.2
2017-11-09T12:04:00.939Z,91.1
2017-11-09T12:05:00.014Z,91
2017-11-09T12:05:59.088Z,90.3
2017-11-09T12:06:57.892Z,90.6
2017-11-09T12:07:57.194Z,90.8
2017-11-09T12:08:56.129Z,90.8
2017-11-09T12:09:55.579Z,90.5
2017-11-09T12:10:54.522Z,90.7
2017-11-09T12:11:24.765Z,90.7
2017-11-09T12:11:55.029Z,90.8
2017-11-09T12:13:51.977Z,90.8
2017-11-09T12:14:50.767Z,90.8
2017-11-09T12:15:49.567Z,90.5
2017-11-09T12:16:48.999Z,90.4
2017-11-09T12:17:48.310Z,90.6
2017-11-09T12:18:47.286Z,90.7
2017-11-09T12:19:46.233Z,90.7
2017-11-09T12:20:45.553Z,90.8
2017-11-09T12:21:44.489Z,90.7
2017-11-09T12:22:43.421Z,90.6
2017-11-09T12:23:42.745Z,90.8
2017-11-09T12:24:41.545Z,90.8
2017-11-09T12:25:40.983Z,90.8
2017-11-09T12:26:40.143Z,90.8
2017-11-09T12:27:39.112Z,90.4
2017-11-09T12:28:38.000Z,90.4
2017-11-09T12:29:37.164Z,90.7
2017-11-09T12:30:36.129Z,90.5
2017-11-09T12:31:35.445Z,90.7
2017-11-09T12:32:34.507Z,90.6
2017-11-09T12:33:33.401Z,90.8
2017-11-09T12:34:32.712Z,90.9
2017-11-09T12:35:31.777Z,91
2017-11-09T12:36:30.841Z,91
2017-11-09T12:37:29.768Z,90.8
2017-11-09T12:38:28.858Z,90.9
2017-11-09T12:39:27.950Z,90.9
2017-11-09T12:40:27.377Z,90.9
2017-11-09T12:41:26.173Z,91
2017-11-09T12:42:25.137Z,91.1
2017-11-09T12:43:24.582Z,91.3
2017-11-09T12:44:23.758Z,91
2017-11-09T12:46:21.573Z,91.1
2017-11-09T12:47:20.651Z,91.1
2017-11-09T12:48:19.965Z,91.2
2017-11-09T12:49:18.955Z,91.1
2017-11-09T12:50:17.907Z,91.1
2017-11-09T12:51:17.202Z,91
2017-11-09T12:52:16.362Z,91
2017-11-09T12:53:15.019Z,91.1
2017-11-09T12:54:14.464Z,91.2
2017-11-09T12:55:13.415Z,91.2
2017-11-09T12:57:11.875Z,91.2
2017-11-09T12:59:09.835Z,91.1
2017-11-09T13:00:09.151Z,91.1
2017-11-09T13:01:08.229Z,91.1
2017-11-09T13:02:07.299Z,91
2017-11-09T13:03:05.961Z,90.8
2017-11-09T13:04:05.403Z,90.8
2017-11-09T13:05:04.345Z,90.8
2017-11-09T13:06:03.794Z,90.8
2017-11-09T13:08:01.988Z,91.1
2017-11-09T13:09:00.810Z,91
2017-11-09T13:09:59.604Z,90.9
2017-11-09T13:10:59.069Z,90.9
2017-11-09T13:11:57.890Z,90.9
2017-11-09T13:13:56.085Z,91.2
2017-11-09T13:14:55.412Z,91.1
2017-11-09T13:15:54.340Z,91
2017-11-09T13:16:53.421Z,90.9
2017-11-09T13:17:52.491Z,90.9
2017-11-09T13:18:51.673Z,90.9
2017-11-09T13:19:50.972Z,90.7
2017-11-09T13:20:49.785Z,90.7
2017-11-09T13:21:49.086Z,90.8
2017-11-09T13:22:48.013Z,90.9
2017-11-09T13:23:47.452Z,90.8
2017-11-09T13:24:46.261Z,90.9
2017-11-09T13:25:45.205Z,90.9
2017-11-09T13:26:44.151Z,91.1
2017-11-09T13:27:43.602Z,91
2017-11-09T13:28:42.773Z,90.9
2017-11-09T13:29:41.719Z,90.9
2017-11-09T13:30:40.650Z,91
2017-11-09T13:32:38.834Z,90.8
2017-11-09T13:33:38.372Z,90.6
2017-11-09T13:34:37.317Z,90.8
2017-11-09T13:35:36.249Z,90.8
2017-11-09T13:36:06.489Z,90.8
2017-11-09T13:36:37.105Z,90.8
2017-11-09T13:37:07.446Z,90.8
2017-11-09T13:37:37.827Z,90.8
2017-11-09T13:38:33.742Z,90.8
2017-11-09T13:39:32.709Z,90.5
2017-11-09T13:40:31.645Z,90.5
2017-11-09T13:41:30.952Z,90.5
2017-11-09T13:42:29.901Z,90.6
2017-11-09T13:44:28.239Z,90.5
2017-11-09T13:45:27.183Z,90.5
2017-11-09T13:45:57.660Z,90.5
2017-11-09T13:46:27.926Z,90.7
2017-11-09T13:46:58.540Z,90.7
2017-11-09T13:48:24.518Z,90.6
2017-11-09T13:49:23.452Z,90.7
2017-11-09T13:50:22.383Z,90.8
2017-11-09T13:51:21.682Z,90.8
2017-11-09T13:52:20.749Z,90.9
2017-11-09T13:53:19.912Z,90.9
2017-11-09T13:54:19.231Z,90.7
2017-11-09T13:55:18.326Z,90.6
2017-11-09T13:56:17.344Z,90.7
2017-11-09T13:57:16.461Z,90.6
2017-11-09T13:58:15.622Z,90.7
2017-11-09T13:59:14.450Z,90.7
2017-11-09T14:00:13.893Z,90.8
2017-11-09T14:01:12.969Z,90.8
2017-11-09T14:02:12.058Z,90.9
2017-11-09T14:03:10.854Z,90.9
2017-11-09T14:04:09.931Z,90.8
2017-11-09T14:05:09.085Z,90.8
2017-11-09T14:06:08.165Z,90.9
2017-11-09T14:07:07.138Z,90.8
2017-11-09T14:08:06.212Z,90.6
2017-11-09T14:09:05.667Z,90.7